sensor_id;sensor_type;location;lat;lon;timestamp;temperature;humidity
43671;DHT22;29267;50.906;7.248;2023-05-10T00:02:02;12.90;99.90
43671;DHT22;29267;50.906;7.248;2023-05-10T00:04:28;12.80;99.90
43671;DHT22;29267;50.906;7.248;2023-05-10T00:06:54;12.90;99.90
43671;DHT22;29267;50.906;7.248;2023-05-10T00:09:20;12.80;99.90
43671;DHT22;29267;50.906;7.248;2023-05-10T00:11:45;12.90;99.90
43671;DHT22;29267;50.906;7.248;2023-05-10T00:14:11;12.80;99.90
43671;DHT22;29267;50.906;7.248;2023-05-10T00:16:37;12.80;99.90
43671;DHT22;29267;50.906;7.248;2023-05-10T00:19:02;12.80;99.90
43671;DHT22;29267;50.906;7.248;2023-05-10T00:21:28;12.90;99.90
43671;DHT22;29267;50.906;7.248;2023-05-10T00:23:54;12.90;99.90
43671;DHT22;29267;50.906;7.248;2023-05-10T00:26:20;12.90;99.90
43671;DHT22;29267;50.906;7.248;2023-05-10T00:28:45;12.90;99.90
43671;DHT22;29267;50.906;7.248;2023-05-10T00:31:11;12.90;99.90
43671;DHT22;29267;50.906;7.248;2023-05-10T00:33:36;12.90;99.90
43671;DHT22;29267;50.906;7.248;2023-05-10T00:36:02;12.90;99.90
43671;DHT22;29267;50.906;7.248;2023-05-10T00:38:28;12.90;99.90
43671;DHT22;29267;50.906;7.248;2023-05-10T00:40:54;12.90;99.90
43671;DHT22;29267;50.906;7.248;2023-05-10T00:43:19;12.80;99.90
43671;DHT22;29267;50.906;7.248;2023-05-10T00:45:45;12.80;99.90
43671;DHT22;29267;50.906;7.248;2023-05-10T00:48:11;12.80;99.90
43671;DHT22;29267;50.906;7.248;2023-05-10T00:50:37;12.80;99.90
43671;DHT22;29267;50.906;7.248;2023-05-10T00:53:02;12.80;99.90
43671;DHT22;29267;50.906;7.248;2023-05-10T00:55:28;12.80;99.90
43671;DHT22;29267;50.906;7.248;2023-05-10T00:57:54;12.80;99.90
43671;DHT22;29267;50.906;7.248;2023-05-10T01:00:20;12.80;99.90
43671;DHT22;29267;50.906;7.248;2023-05-10T01:02:46;12.80;99.90
43671;DHT22;29267;50.906;7.248;2023-05-10T01:05:12;12.80;99.90
43671;DHT22;29267;50.906;7.248;2023-05-10T01:07:38;12.80;99.90
43671;DHT22;29267;50.906;7.248;2023-05-10T01:10:06;12.80;99.90
43671;DHT22;29267;50.906;7.248;2023-05-10T01:12:32;12.80;99.90
43671;DHT22;29267;50.906;7.248;2023-05-10T01:14:58;12.80;99.90
43671;DHT22;29267;50.906;7.248;2023-05-10T01:17:25;12.80;99.90
43671;DHT22;29267;50.906;7.248;2023-05-10T01:19:51;12.80;99.90
43671;DHT22;29267;50.906;7.248;2023-05-10T01:22:55;12.80;99.90
43671;DHT22;29267;50.906;7.248;2023-05-10T01:33:47;12.80;99.90
43671;DHT22;29267;50.906;7.248;2023-05-10T01:36:28;12.80;99.90
43671;DHT22;29267;50.906;7.248;2023-05-10T01:39:23;12.80;99.90
43671;DHT22;29267;50.906;7.248;2023-05-10T01:41:57;12.80;99.90
43671;DHT22;29267;50.906;7.248;2023-05-10T01:44:31;12.80;99.90
43671;DHT22;29267;50.906;7.248;2023-05-10T01:47:11;12.80;99.90
43671;DHT22;29267;50.906;7.248;2023-05-10T01:49:45;12.80;99.90
43671;DHT22;29267;50.906;7.248;2023-05-10T01:52:15;12.80;99.90
43671;DHT22;29267;50.906;7.248;2023-05-10T01:54:48;12.80;99.90
43671;DHT22;29267;50.906;7.248;2023-05-10T01:57:16;12.80;99.90
43671;DHT22;29267;50.906;7.248;2023-05-10T01:59:43;12.80;99.90
43671;DHT22;29267;50.906;7.248;2023-05-10T02:02:12;12.80;99.90
43671;DHT22;29267;50.906;7.248;2023-05-10T02:04:40;12.80;99.90
43671;DHT22;29267;50.906;7.248;2023-05-10T02:07:08;12.80;99.90
43671;DHT22;29267;50.906;7.248;2023-05-10T02:09:34;12.80;99.90
43671;DHT22;29267;50.906;7.248;2023-05-10T02:12:03;12.80;99.90
43671;DHT22;29267;50.906;7.248;2023-05-10T02:14:32;12.80;99.90
43671;DHT22;29267;50.906;7.248;2023-05-10T02:16:59;12.80;99.90
43671;DHT22;29267;50.906;7.248;2023-05-10T02:19:27;12.80;99.90
43671;DHT22;29267;50.906;7.248;2023-05-10T02:21:55;12.80;99.90
43671;DHT22;29267;50.906;7.248;2023-05-10T02:24:22;12.80;99.90
43671;DHT22;29267;50.906;7.248;2023-05-10T02:26:49;12.90;99.90
43671;DHT22;29267;50.906;7.248;2023-05-10T02:29:16;12.80;99.90
43671;DHT22;29267;50.906;7.248;2023-05-10T02:31:43;12.80;99.90
43671;DHT22;29267;50.906;7.248;2023-05-10T02:34:10;12.80;99.90
43671;DHT22;29267;50.906;7.248;2023-05-10T02:36:38;12.90;99.90
43671;DHT22;29267;50.906;7.248;2023-05-10T02:39:05;12.80;99.90
43671;DHT22;29267;50.906;7.248;2023-05-10T02:41:35;12.80;99.90
43671;DHT22;29267;50.906;7.248;2023-05-10T02:44:02;12.80;99.90
43671;DHT22;29267;50.906;7.248;2023-05-10T02:46:29;12.80;99.90
43671;DHT22;29267;50.906;7.248;2023-05-10T02:48:54;12.80;99.90
43671;DHT22;29267;50.906;7.248;2023-05-10T02:51:21;12.80;99.90
43671;DHT22;29267;50.906;7.248;2023-05-10T02:53:50;12.80;99.90
43671;DHT22;29267;50.906;7.248;2023-05-10T02:56:28;12.80;99.90
43671;DHT22;29267;50.906;7.248;2023-05-10T02:58:56;12.80;99.90
43671;DHT22;29267;50.906;7.248;2023-05-10T03:01:22;12.80;99.90
43671;DHT22;29267;50.906;7.248;2023-05-10T03:03:48;12.80;99.90
43671;DHT22;29267;50.906;7.248;2023-05-10T03:06:13;12.80;99.90
43671;DHT22;29267;50.906;7.248;2023-05-10T03:08:39;12.70;99.90
43671;DHT22;29267;50.906;7.248;2023-05-10T03:16:45;12.70;99.90
43671;DHT22;29267;50.906;7.248;2023-05-10T03:19:26;12.60;99.90
43671;DHT22;29267;50.906;7.248;2023-05-10T03:21:53;12.60;99.90
43671;DHT22;29267;50.906;7.248;2023-05-10T03:24:23;12.60;99.90
43671;DHT22;29267;50.906;7.248;2023-05-10T03:26:54;12.60;99.90
43671;DHT22;29267;50.906;7.248;2023-05-10T03:29:21;12.50;99.90
43671;DHT22;29267;50.906;7.248;2023-05-10T03:31:48;12.60;99.90
43671;DHT22;29267;50.906;7.248;2023-05-10T03:34:13;12.60;99.90
43671;DHT22;29267;50.906;7.248;2023-05-10T03:36:39;12.60;99.90
43671;DHT22;29267;50.906;7.248;2023-05-10T03:39:04;12.60;99.90
43671;DHT22;29267;50.906;7.248;2023-05-10T03:41:30;12.60;99.90
43671;DHT22;29267;50.906;7.248;2023-05-10T03:43:56;12.60;99.90
43671;DHT22;29267;50.906;7.248;2023-05-10T03:46:21;12.60;99.90
43671;DHT22;29267;50.906;7.248;2023-05-10T03:48:47;12.60;99.90
43671;DHT22;29267;50.906;7.248;2023-05-10T03:51:12;12.70;99.90
43671;DHT22;29267;50.906;7.248;2023-05-10T03:53:38;12.70;99.90
43671;DHT22;29267;50.906;7.248;2023-05-10T03:56:03;12.70;99.90
43671;DHT22;29267;50.906;7.248;2023-05-10T03:58:29;12.60;99.90
43671;DHT22;29267;50.906;7.248;2023-05-10T04:00:54;12.70;99.90
43671;DHT22;29267;50.906;7.248;2023-05-10T04:03:20;12.70;99.90
43671;DHT22;29267;50.906;7.248;2023-05-10T04:05:46;12.60;99.90
43671;DHT22;29267;50.906;7.248;2023-05-10T04:08:11;12.60;99.90
43671;DHT22;29267;50.906;7.248;2023-05-10T04:10:37;12.60;99.90
43671;DHT22;29267;50.906;7.248;2023-05-10T04:13:02;12.60;99.90
43671;DHT22;29267;50.906;7.248;2023-05-10T04:15:28;12.60;99.90
43671;DHT22;29267;50.906;7.248;2023-05-10T04:17:54;12.60;99.90
43671;DHT22;29267;50.906;7.248;2023-05-10T04:20:19;12.60;99.90
43671;DHT22;29267;50.906;7.248;2023-05-10T04:22:45;12.70;99.90
43671;DHT22;29267;50.906;7.248;2023-05-10T04:25:10;12.70;99.90
43671;DHT22;29267;50.906;7.248;2023-05-10T04:27:36;12.70;99.90
43671;DHT22;29267;50.906;7.248;2023-05-10T04:30:02;12.70;99.90
43671;DHT22;29267;50.906;7.248;2023-05-10T04:32:28;12.70;99.90
43671;DHT22;29267;50.906;7.248;2023-05-10T04:34:54;12.70;99.90
43671;DHT22;29267;50.906;7.248;2023-05-10T04:37:20;12.80;99.90
43671;DHT22;29267;50.906;7.248;2023-05-10T04:39:46;12.70;99.90
43671;DHT22;29267;50.906;7.248;2023-05-10T04:42:12;12.70;99.90
43671;DHT22;29267;50.906;7.248;2023-05-10T04:44:40;12.70;99.90
43671;DHT22;29267;50.906;7.248;2023-05-10T04:47:06;12.70;99.90
43671;DHT22;29267;50.906;7.248;2023-05-10T04:49:31;12.80;99.90
43671;DHT22;29267;50.906;7.248;2023-05-10T04:51:57;12.70;99.90
43671;DHT22;29267;50.906;7.248;2023-05-10T04:54:23;12.80;99.90
43671;DHT22;29267;50.906;7.248;2023-05-10T04:56:48;12.80;99.90
43671;DHT22;29267;50.906;7.248;2023-05-10T04:59:14;12.80;99.90
43671;DHT22;29267;50.906;7.248;2023-05-10T05:01:40;12.80;99.90
43671;DHT22;29267;50.906;7.248;2023-05-10T05:04:05;12.80;99.90
43671;DHT22;29267;50.906;7.248;2023-05-10T05:06:32;12.80;99.90
43671;DHT22;29267;50.906;7.248;2023-05-10T05:08:57;12.70;99.90
43671;DHT22;29267;50.906;7.248;2023-05-10T05:11:23;12.80;99.90
43671;DHT22;29267;50.906;7.248;2023-05-10T05:13:48;12.70;99.90
43671;DHT22;29267;50.906;7.248;2023-05-10T05:16:14;12.70;99.90
43671;DHT22;29267;50.906;7.248;2023-05-10T05:18:40;12.80;99.90
43671;DHT22;29267;50.906;7.248;2023-05-10T05:21:15;12.80;99.90
43671;DHT22;29267;50.906;7.248;2023-05-10T05:23:41;12.80;99.90
43671;DHT22;29267;50.906;7.248;2023-05-10T05:26:07;12.80;99.90
43671;DHT22;29267;50.906;7.248;2023-05-10T05:28:32;12.70;99.90
43671;DHT22;29267;50.906;7.248;2023-05-10T05:31:05;12.80;99.90
43671;DHT22;29267;50.906;7.248;2023-05-10T05:33:32;12.80;99.90
43671;DHT22;29267;50.906;7.248;2023-05-10T05:36:01;12.80;99.90
43671;DHT22;29267;50.906;7.248;2023-05-10T05:38:26;12.80;99.90
43671;DHT22;29267;50.906;7.248;2023-05-10T05:40:52;12.90;99.90
43671;DHT22;29267;50.906;7.248;2023-05-10T05:43:17;12.80;99.90
43671;DHT22;29267;50.906;7.248;2023-05-10T05:45:43;12.90;99.90
43671;DHT22;29267;50.906;7.248;2023-05-10T05:48:08;12.90;99.90
43671;DHT22;29267;50.906;7.248;2023-05-10T05:50:34;13.00;99.90
43671;DHT22;29267;50.906;7.248;2023-05-10T05:53:00;13.10;99.90
43671;DHT22;29267;50.906;7.248;2023-05-10T05:55:26;13.20;99.90
43671;DHT22;29267;50.906;7.248;2023-05-10T05:57:51;13.20;99.90
43671;DHT22;29267;50.906;7.248;2023-05-10T06:00:17;13.30;99.90
43671;DHT22;29267;50.906;7.248;2023-05-10T06:02:43;13.40;99.90
43671;DHT22;29267;50.906;7.248;2023-05-10T06:05:08;13.40;99.90
43671;DHT22;29267;50.906;7.248;2023-05-10T06:07:34;13.50;99.90
43671;DHT22;29267;50.906;7.248;2023-05-10T06:10:00;13.60;99.90
43671;DHT22;29267;50.906;7.248;2023-05-10T06:12:25;13.60;99.90
43671;DHT22;29267;50.906;7.248;2023-05-10T06:14:51;13.70;99.90
43671;DHT22;29267;50.906;7.248;2023-05-10T06:17:16;13.70;99.90
43671;DHT22;29267;50.906;7.248;2023-05-10T06:19:42;13.80;99.90
43671;DHT22;29267;50.906;7.248;2023-05-10T06:22:08;13.90;99.90
43671;DHT22;29267;50.906;7.248;2023-05-10T06:24:33;14.00;99.90
43671;DHT22;29267;50.906;7.248;2023-05-10T06:26:59;14.10;99.90
43671;DHT22;29267;50.906;7.248;2023-05-10T06:29:26;14.10;99.90
43671;DHT22;29267;50.906;7.248;2023-05-10T06:31:51;14.00;99.90
43671;DHT22;29267;50.906;7.248;2023-05-10T06:34:17;14.10;99.90
43671;DHT22;29267;50.906;7.248;2023-05-10T06:36:42;14.10;99.90
43671;DHT22;29267;50.906;7.248;2023-05-10T06:39:08;14.10;99.90
43671;DHT22;29267;50.906;7.248;2023-05-10T06:41:33;14.00;99.90
43671;DHT22;29267;50.906;7.248;2023-05-10T06:43:59;14.10;99.90
43671;DHT22;29267;50.906;7.248;2023-05-10T06:46:25;14.20;99.90
43671;DHT22;29267;50.906;7.248;2023-05-10T06:48:50;14.30;99.90
43671;DHT22;29267;50.906;7.248;2023-05-10T06:51:16;14.30;99.90
43671;DHT22;29267;50.906;7.248;2023-05-10T06:53:41;14.30;99.90
43671;DHT22;29267;50.906;7.248;2023-05-10T06:56:07;14.30;99.90
43671;DHT22;29267;50.906;7.248;2023-05-10T06:58:32;14.30;99.90
43671;DHT22;29267;50.906;7.248;2023-05-10T07:01:03;14.30;99.90
43671;DHT22;29267;50.906;7.248;2023-05-10T07:03:28;14.30;99.90
43671;DHT22;29267;50.906;7.248;2023-05-10T07:05:56;14.20;99.90
43671;DHT22;29267;50.906;7.248;2023-05-10T07:08:25;14.20;99.90
43671;DHT22;29267;50.906;7.248;2023-05-10T07:10:50;14.10;99.90
43671;DHT22;29267;50.906;7.248;2023-05-10T07:13:16;14.10;99.90
43671;DHT22;29267;50.906;7.248;2023-05-10T07:15:42;13.90;99.90
43671;DHT22;29267;50.906;7.248;2023-05-10T07:18:07;13.80;99.90
43671;DHT22;29267;50.906;7.248;2023-05-10T07:20:33;13.80;99.90
43671;DHT22;29267;50.906;7.248;2023-05-10T07:22:59;13.80;99.90
43671;DHT22;29267;50.906;7.248;2023-05-10T07:25:24;13.80;99.90
43671;DHT22;29267;50.906;7.248;2023-05-10T07:27:50;13.70;99.90
43671;DHT22;29267;50.906;7.248;2023-05-10T07:30:16;13.70;99.90
43671;DHT22;29267;50.906;7.248;2023-05-10T07:32:41;13.80;99.90
43671;DHT22;29267;50.906;7.248;2023-05-10T07:35:08;13.80;99.90
43671;DHT22;29267;50.906;7.248;2023-05-10T07:37:34;13.80;99.90
43671;DHT22;29267;50.906;7.248;2023-05-10T07:39:59;13.80;99.90
43671;DHT22;29267;50.906;7.248;2023-05-10T07:42:25;13.70;99.90
43671;DHT22;29267;50.906;7.248;2023-05-10T07:44:51;13.80;99.90
43671;DHT22;29267;50.906;7.248;2023-05-10T07:47:16;13.80;99.90
43671;DHT22;29267;50.906;7.248;2023-05-10T07:49:42;13.70;99.90
43671;DHT22;29267;50.906;7.248;2023-05-10T07:52:07;13.80;99.90
43671;DHT22;29267;50.906;7.248;2023-05-10T07:54:33;13.80;99.90
43671;DHT22;29267;50.906;7.248;2023-05-10T07:57:00;13.80;99.90
43671;DHT22;29267;50.906;7.248;2023-05-10T07:59:25;13.80;99.90
43671;DHT22;29267;50.906;7.248;2023-05-10T08:01:51;13.80;99.90
43671;DHT22;29267;50.906;7.248;2023-05-10T08:04:16;13.80;99.90
43671;DHT22;29267;50.906;7.248;2023-05-10T08:06:42;13.90;99.90
43671;DHT22;29267;50.906;7.248;2023-05-10T08:09:08;13.90;99.90
43671;DHT22;29267;50.906;7.248;2023-05-10T08:11:34;13.80;99.90
43671;DHT22;29267;50.906;7.248;2023-05-10T08:14:00;13.90;99.90
43671;DHT22;29267;50.906;7.248;2023-05-10T08:16:26;13.80;99.90
43671;DHT22;29267;50.906;7.248;2023-05-10T08:18:51;13.70;99.90
43671;DHT22;29267;50.906;7.248;2023-05-10T08:21:17;13.70;99.90
43671;DHT22;29267;50.906;7.248;2023-05-10T08:23:42;13.60;99.90
43671;DHT22;29267;50.906;7.248;2023-05-10T08:26:09;13.50;99.90
43671;DHT22;29267;50.906;7.248;2023-05-10T08:28:35;13.50;99.90
43671;DHT22;29267;50.906;7.248;2023-05-10T08:31:00;13.60;99.90
43671;DHT22;29267;50.906;7.248;2023-05-10T08:33:26;13.70;99.90
43671;DHT22;29267;50.906;7.248;2023-05-10T08:35:51;13.80;99.90
43671;DHT22;29267;50.906;7.248;2023-05-10T08:38:18;13.90;99.90
43671;DHT22;29267;50.906;7.248;2023-05-10T08:40:44;14.00;99.90
43671;DHT22;29267;50.906;7.248;2023-05-10T08:43:12;14.30;99.90
43671;DHT22;29267;50.906;7.248;2023-05-10T08:45:41;14.30;99.90
43671;DHT22;29267;50.906;7.248;2023-05-10T08:48:09;14.40;99.90
43671;DHT22;29267;50.906;7.248;2023-05-10T08:50:39;14.70;99.90
43671;DHT22;29267;50.906;7.248;2023-05-10T08:53:13;14.80;99.90
43671;DHT22;29267;50.906;7.248;2023-05-10T08:55:40;14.90;99.90
43671;DHT22;29267;50.906;7.248;2023-05-10T08:58:08;14.90;99.90
43671;DHT22;29267;50.906;7.248;2023-05-10T09:00:33;15.10;99.90
43671;DHT22;29267;50.906;7.248;2023-05-10T09:02:59;15.50;99.90
43671;DHT22;29267;50.906;7.248;2023-05-10T09:05:25;15.70;99.90
43671;DHT22;29267;50.906;7.248;2023-05-10T09:07:51;16.00;99.90
43671;DHT22;29267;50.906;7.248;2023-05-10T09:10:17;16.10;99.90
43671;DHT22;29267;50.906;7.248;2023-05-10T09:12:44;16.40;99.90
43671;DHT22;29267;50.906;7.248;2023-05-10T09:15:10;16.60;99.90
43671;DHT22;29267;50.906;7.248;2023-05-10T09:17:38;16.40;99.90
43671;DHT22;29267;50.906;7.248;2023-05-10T09:20:04;16.20;99.90
43671;DHT22;29267;50.906;7.248;2023-05-10T09:22:31;16.10;99.90
43671;DHT22;29267;50.906;7.248;2023-05-10T09:25:13;16.00;99.90
43671;DHT22;29267;50.906;7.248;2023-05-10T09:27:40;15.80;99.90
43671;DHT22;29267;50.906;7.248;2023-05-10T09:30:07;15.70;99.90
43671;DHT22;29267;50.906;7.248;2023-05-10T09:32:39;15.50;99.90
43671;DHT22;29267;50.906;7.248;2023-05-10T09:35:16;15.40;99.90
43671;DHT22;29267;50.906;7.248;2023-05-10T09:37:44;15.50;99.90
43671;DHT22;29267;50.906;7.248;2023-05-10T09:40:21;15.40;99.90
43671;DHT22;29267;50.906;7.248;2023-05-10T09:42:58;15.30;99.90
43671;DHT22;29267;50.906;7.248;2023-05-10T09:45:25;15.40;99.90
43671;DHT22;29267;50.906;7.248;2023-05-10T09:47:51;15.70;99.90
43671;DHT22;29267;50.906;7.248;2023-05-10T09:50:17;15.90;99.90
43671;DHT22;29267;50.906;7.248;2023-05-10T09:52:55;15.90;99.90
43671;DHT22;29267;50.906;7.248;2023-05-10T09:55:25;16.10;99.90
43671;DHT22;29267;50.906;7.248;2023-05-10T09:57:59;16.40;99.90
43671;DHT22;29267;50.906;7.248;2023-05-10T10:00:26;16.30;99.90
43671;DHT22;29267;50.906;7.248;2023-05-10T10:02:58;16.60;99.90
43671;DHT22;29267;50.906;7.248;2023-05-10T10:05:34;16.50;99.90
43671;DHT22;29267;50.906;7.248;2023-05-10T10:08:03;16.50;99.90
43671;DHT22;29267;50.906;7.248;2023-05-10T10:10:31;16.40;99.90
43671;DHT22;29267;50.906;7.248;2023-05-10T10:12:57;16.30;99.90
43671;DHT22;29267;50.906;7.248;2023-05-10T10:15:23;16.40;99.90
43671;DHT22;29267;50.906;7.248;2023-05-10T10:17:50;16.60;99.90
43671;DHT22;29267;50.906;7.248;2023-05-10T10:20:17;16.30;99.90
43671;DHT22;29267;50.906;7.248;2023-05-10T10:22:43;16.30;99.90
43671;DHT22;29267;50.906;7.248;2023-05-10T10:25:14;16.40;99.90
43671;DHT22;29267;50.906;7.248;2023-05-10T10:27:49;16.60;99.90
43671;DHT22;29267;50.906;7.248;2023-05-10T10:30:35;16.50;99.90
43671;DHT22;29267;50.906;7.248;2023-05-10T10:36:01;15.90;99.90
43671;DHT22;29267;50.906;7.248;2023-05-10T10:41:28;15.30;99.90
43671;DHT22;29267;50.906;7.248;2023-05-10T10:44:22;15.00;99.90
43671;DHT22;29267;50.906;7.248;2023-05-10T10:49:50;14.70;99.90
43671;DHT22;29267;50.906;7.248;2023-05-10T10:54:54;14.80;99.90
43671;DHT22;29267;50.906;7.248;2023-05-10T10:57:23;14.80;99.90
43671;DHT22;29267;50.906;7.248;2023-05-10T10:59:48;15.00;99.90
43671;DHT22;29267;50.906;7.248;2023-05-10T11:02:33;15.00;99.90
43671;DHT22;29267;50.906;7.248;2023-05-10T11:04:59;15.10;99.90
43671;DHT22;29267;50.906;7.248;2023-05-10T11:07:26;15.40;99.90
43671;DHT22;29267;50.906;7.248;2023-05-10T11:09:51;15.60;99.90
43671;DHT22;29267;50.906;7.248;2023-05-10T11:12:17;15.90;99.90
43671;DHT22;29267;50.906;7.248;2023-05-10T11:14:43;16.20;99.90
43671;DHT22;29267;50.906;7.248;2023-05-10T11:17:27;16.50;99.90
43671;DHT22;29267;50.906;7.248;2023-05-10T11:20:09;16.90;99.90
43671;DHT22;29267;50.906;7.248;2023-05-10T11:22:52;17.40;99.90
43671;DHT22;29267;50.906;7.248;2023-05-10T11:25:18;18.20;99.90
43671;DHT22;29267;50.906;7.248;2023-05-10T11:27:44;18.30;99.90
43671;DHT22;29267;50.906;7.248;2023-05-10T11:30:11;18.30;99.90
43671;DHT22;29267;50.906;7.248;2023-05-10T11:32:38;18.70;99.90
43671;DHT22;29267;50.906;7.248;2023-05-10T11:35:11;18.70;99.90
43671;DHT22;29267;50.906;7.248;2023-05-10T11:37:40;18.60;99.90
43671;DHT22;29267;50.906;7.248;2023-05-10T11:40:09;18.60;99.90
43671;DHT22;29267;50.906;7.248;2023-05-10T11:42:37;18.60;99.90
43671;DHT22;29267;50.906;7.248;2023-05-10T11:45:03;18.60;99.90
43671;DHT22;29267;50.906;7.248;2023-05-10T11:47:29;18.50;99.90
43671;DHT22;29267;50.906;7.248;2023-05-10T11:49:54;18.50;99.90
43671;DHT22;29267;50.906;7.248;2023-05-10T11:52:20;18.60;99.90
43671;DHT22;29267;50.906;7.248;2023-05-10T11:54:51;18.50;99.90
43671;DHT22;29267;50.906;7.248;2023-05-10T11:57:18;18.60;99.90
43671;DHT22;29267;50.906;7.248;2023-05-10T11:59:52;18.80;99.90
43671;DHT22;29267;50.906;7.248;2023-05-10T12:02:18;19.10;99.90
43671;DHT22;29267;50.906;7.248;2023-05-10T12:04:44;19.20;99.90
43671;DHT22;29267;50.906;7.248;2023-05-10T12:07:09;19.30;99.90
43671;DHT22;29267;50.906;7.248;2023-05-10T12:09:35;19.50;99.90
43671;DHT22;29267;50.906;7.248;2023-05-10T12:12:02;19.70;99.90
43671;DHT22;29267;50.906;7.248;2023-05-10T12:14:27;19.80;99.90
43671;DHT22;29267;50.906;7.248;2023-05-10T12:16:54;19.70;99.90
43671;DHT22;29267;50.906;7.248;2023-05-10T12:19:22;19.60;99.90
43671;DHT22;29267;50.906;7.248;2023-05-10T12:21:48;19.60;99.90
43671;DHT22;29267;50.906;7.248;2023-05-10T12:24:14;19.80;99.90
43671;DHT22;29267;50.906;7.248;2023-05-10T12:26:44;19.50;99.90
43671;DHT22;29267;50.906;7.248;2023-05-10T12:29:18;19.60;99.90
43671;DHT22;29267;50.906;7.248;2023-05-10T12:31:53;19.40;99.90
43671;DHT22;29267;50.906;7.248;2023-05-10T12:34:33;19.40;99.90
43671;DHT22;29267;50.906;7.248;2023-05-10T12:36:59;19.40;99.90
43671;DHT22;29267;50.906;7.248;2023-05-10T12:39:25;19.60;99.90
43671;DHT22;29267;50.906;7.248;2023-05-10T12:41:51;19.50;99.90
43671;DHT22;29267;50.906;7.248;2023-05-10T12:44:17;19.30;99.90
43671;DHT22;29267;50.906;7.248;2023-05-10T12:46:43;19.20;99.90
43671;DHT22;29267;50.906;7.248;2023-05-10T12:49:09;18.60;99.90
43671;DHT22;29267;50.906;7.248;2023-05-10T12:51:35;18.50;99.90
43671;DHT22;29267;50.906;7.248;2023-05-10T12:54:00;18.20;99.90
43671;DHT22;29267;50.906;7.248;2023-05-10T12:56:26;18.20;99.90
43671;DHT22;29267;50.906;7.248;2023-05-10T12:58:51;18.30;99.90
43671;DHT22;29267;50.906;7.248;2023-05-10T13:01:17;18.50;99.90
43671;DHT22;29267;50.906;7.248;2023-05-10T13:03:42;18.80;99.90
43671;DHT22;29267;50.906;7.248;2023-05-10T13:06:08;19.20;99.90
43671;DHT22;29267;50.906;7.248;2023-05-10T13:08:34;19.40;99.90
43671;DHT22;29267;50.906;7.248;2023-05-10T13:11:02;19.50;99.90
43671;DHT22;29267;50.906;7.248;2023-05-10T13:13:28;19.80;99.90
43671;DHT22;29267;50.906;7.248;2023-05-10T13:15:53;19.60;99.90
43671;DHT22;29267;50.906;7.248;2023-05-10T13:18:19;19.80;99.90
43671;DHT22;29267;50.906;7.248;2023-05-10T13:20:45;20.10;99.90
43671;DHT22;29267;50.906;7.248;2023-05-10T13:23:11;20.20;99.90
43671;DHT22;29267;50.906;7.248;2023-05-10T13:25:37;19.90;99.90
43671;DHT22;29267;50.906;7.248;2023-05-10T13:28:03;19.90;99.90
43671;DHT22;29267;50.906;7.248;2023-05-10T13:30:28;19.80;99.90
43671;DHT22;29267;50.906;7.248;2023-05-10T13:32:54;19.70;99.90
43671;DHT22;29267;50.906;7.248;2023-05-10T13:35:20;19.80;99.90
43671;DHT22;29267;50.906;7.248;2023-05-10T13:37:45;19.90;99.90
43671;DHT22;29267;50.906;7.248;2023-05-10T13:40:11;19.90;99.90
43671;DHT22;29267;50.906;7.248;2023-05-10T13:42:37;19.80;99.90
43671;DHT22;29267;50.906;7.248;2023-05-10T13:45:03;19.60;99.90
43671;DHT22;29267;50.906;7.248;2023-05-10T13:47:28;19.50;99.90
43671;DHT22;29267;50.906;7.248;2023-05-10T13:49:54;19.50;99.90
43671;DHT22;29267;50.906;7.248;2023-05-10T13:52:20;19.40;99.90
43671;DHT22;29267;50.906;7.248;2023-05-10T13:54:45;19.40;99.90
43671;DHT22;29267;50.906;7.248;2023-05-10T13:57:11;19.30;99.90
43671;DHT22;29267;50.906;7.248;2023-05-10T13:59:39;19.20;99.90
43671;DHT22;29267;50.906;7.248;2023-05-10T14:02:04;19.20;99.90
43671;DHT22;29267;50.906;7.248;2023-05-10T14:04:30;19.10;99.90
43671;DHT22;29267;50.906;7.248;2023-05-10T14:06:57;19.10;99.90
43671;DHT22;29267;50.906;7.248;2023-05-10T14:09:22;19.10;99.90
43671;DHT22;29267;50.906;7.248;2023-05-10T14:11:48;19.00;99.90
43671;DHT22;29267;50.906;7.248;2023-05-10T14:14:13;19.10;99.90
43671;DHT22;29267;50.906;7.248;2023-05-10T14:16:43;19.00;99.90
43671;DHT22;29267;50.906;7.248;2023-05-10T14:19:10;19.00;99.90
43671;DHT22;29267;50.906;7.248;2023-05-10T14:21:35;18.90;99.90
43671;DHT22;29267;50.906;7.248;2023-05-10T14:24:01;18.80;99.90
43671;DHT22;29267;50.906;7.248;2023-05-10T14:26:27;18.80;99.90
43671;DHT22;29267;50.906;7.248;2023-05-10T14:28:53;18.70;99.90
43671;DHT22;29267;50.906;7.248;2023-05-10T14:31:18;18.70;99.90
43671;DHT22;29267;50.906;7.248;2023-05-10T14:33:46;18.60;99.90
43671;DHT22;29267;50.906;7.248;2023-05-10T14:36:12;18.50;99.90
43671;DHT22;29267;50.906;7.248;2023-05-10T14:38:37;18.30;99.90
43671;DHT22;29267;50.906;7.248;2023-05-10T14:41:03;18.40;99.90
43671;DHT22;29267;50.906;7.248;2023-05-10T14:43:29;18.30;99.90
43671;DHT22;29267;50.906;7.248;2023-05-10T14:45:55;18.40;99.90
43671;DHT22;29267;50.906;7.248;2023-05-10T14:48:21;18.20;99.90
43671;DHT22;29267;50.906;7.248;2023-05-10T14:50:46;18.20;99.90
43671;DHT22;29267;50.906;7.248;2023-05-10T14:53:12;18.10;99.90
43671;DHT22;29267;50.906;7.248;2023-05-10T14:55:38;18.00;99.90
43671;DHT22;29267;50.906;7.248;2023-05-10T14:58:04;18.00;99.90
43671;DHT22;29267;50.906;7.248;2023-05-10T15:00:31;18.10;99.90
43671;DHT22;29267;50.906;7.248;2023-05-10T15:02:56;18.10;99.90
43671;DHT22;29267;50.906;7.248;2023-05-10T15:05:22;18.30;99.90
43671;DHT22;29267;50.906;7.248;2023-05-10T15:07:48;18.40;99.90
43671;DHT22;29267;50.906;7.248;2023-05-10T15:10:14;18.40;99.90
43671;DHT22;29267;50.906;7.248;2023-05-10T15:12:40;18.30;99.90
43671;DHT22;29267;50.906;7.248;2023-05-10T15:15:06;18.30;99.90
43671;DHT22;29267;50.906;7.248;2023-05-10T15:17:32;18.20;99.90
43671;DHT22;29267;50.906;7.248;2023-05-10T15:19:58;18.10;99.90
43671;DHT22;29267;50.906;7.248;2023-05-10T15:22:24;18.10;99.90
43671;DHT22;29267;50.906;7.248;2023-05-10T15:24:49;18.00;99.90
43671;DHT22;29267;50.906;7.248;2023-05-10T15:27:15;17.90;99.90
43671;DHT22;29267;50.906;7.248;2023-05-10T15:29:41;18.30;99.90
43671;DHT22;29267;50.906;7.248;2023-05-10T15:32:06;18.10;99.90
43671;DHT22;29267;50.906;7.248;2023-05-10T15:34:32;18.10;99.90
43671;DHT22;29267;50.906;7.248;2023-05-10T15:36:58;18.20;99.90
43671;DHT22;29267;50.906;7.248;2023-05-10T15:39:23;18.10;99.90
43671;DHT22;29267;50.906;7.248;2023-05-10T15:41:49;17.90;99.90
43671;DHT22;29267;50.906;7.248;2023-05-10T15:44:14;17.80;99.90
43671;DHT22;29267;50.906;7.248;2023-05-10T15:46:40;17.70;99.90
43671;DHT22;29267;50.906;7.248;2023-05-10T15:49:06;17.70;99.90
43671;DHT22;29267;50.906;7.248;2023-05-10T15:51:31;17.60;99.90
43671;DHT22;29267;50.906;7.248;2023-05-10T15:53:58;17.70;99.90
43671;DHT22;29267;50.906;7.248;2023-05-10T15:56:23;17.80;99.90